Time;durP1;ratioP1;P1;durP2;ratioP2;P2;SDS_P1;SDS_P2;PMS_P1;PMS_P2;Temp;Humidity;BMP_temperature;BMP_pressure;BME280_temperature;BME280_humidity;BME280_pressure;Samples;Min_cycle;Max_cycle;Signal;HPM_P1;HPM_P2
2022/05/05 21:44:29;;;;;;;;;22.00;20.75;;;;;;;;5077426;27;1419947;-70
2022/05/05 21:46:55;;;;;;;;;36.25;29.75;;;;;;;;5114657;28;22535;-69
2022/05/05 21:49:20;;;;;;;;;26.75;24.25;;;;;;;;5115189;28;12734;-72
2022/05/05 21:51:45;;;;;;;;;28.00;24.75;;;;;;;;5095841;28;14782;-71
2022/05/05 21:54:11;;;;;;;;;29.25;23.25;;;;;;;;5113428;28;10340;-71
2022/05/05 21:56:37;;;;;;;;;26.50;24.25;;;;;;;;5113464;28;10696;-71
2022/05/05 21:59:02;;;;;;;;;25.50;22.50;;;;;;;;5114202;28;11483;-71
2022/05/05 22:01:27;;;;;;;;;25.00;24.00;;;;;;;;5114403;28;11613;-72
2022/05/05 22:03:53;;;;;;;;;25.50;22.50;;;;;;;;5114366;28;10352;-72
2022/05/05 22:06:18;;;;;;;;;20.50;18.25;;;;;;;;5115017;28;10500;-72
2022/05/05 22:08:43;;;;;;;;;28.25;23.75;;;;;;;;5114925;28;12426;-72
2022/05/05 22:11:09;;;;;;;;;23.75;21.00;;;;;;;;5115642;28;11781;-72
2022/05/05 22:13:35;;;;;;;;;22.00;20.00;;;;;;;;5115403;28;11963;-71
2022/05/05 22:16:01;;;;;;;;;25.00;19.00;;;;;;;;5096811;28;12523;-71
2022/05/05 22:18:26;;;;;;;;;23.25;19.50;;;;;;;;5096265;28;11487;-71
2022/05/05 22:20:52;;;;;;;;;15.50;14.75;;;;;;;;5114857;28;11989;-72
2022/05/05 22:23:18;;;;;;;;;26.25;18.50;;;;;;;;5114705;28;13325;-70
2022/05/05 22:25:43;;;;;;;;;25.50;19.75;;;;;;;;5115146;28;13354;-70
2022/05/05 22:28:09;;;;;;;;;19.00;18.25;;;;;;;;5115137;28;11458;-71
2022/05/05 22:30:36;;;;;;;;;22.50;21.00;;;;;;;;5096393;28;12690;-71
2022/05/05 22:33:01;;;;;;;;;23.50;18.50;;;;;;;;5114431;28;13540;-71
2022/05/05 22:35:27;;;;;;;;;22.25;19.50;;;;;;;;5114205;28;12207;-71
2022/05/05 22:37:56;;;;;;;;;19.00;19.00;;;;;;;;5115314;28;11568;-71
2022/05/05 22:43:05;;;;;;;;;26.00;22.00;;;;;;;;5114140;28;11654;-71
2022/05/05 22:45:31;;;;;;;;;18.00;18.00;;;;;;;;5095379;28;11567;-71
2022/05/05 22:47:57;;;;;;;;;22.75;22.25;;;;;;;;5114525;28;10322;-71
2022/05/05 22:50:32;;;;;;;;;18.00;15.75;;;;;;;;5114563;28;13255;-70
2022/05/05 22:52:58;;;;;;;;;22.00;22.00;;;;;;;;5114869;28;12327;-70
2022/05/05 22:55:25;;;;;;;;;20.25;18.75;;;;;;;;5103205;28;14698;-70
2022/05/05 22:57:50;;;;;;;;;23.50;19.25;;;;;;;;5082267;28;12828;-70
2022/05/05 23:00:16;;;;;;;;;18.75;18.25;;;;;;;;5100244;28;11617;-71
2022/05/05 23:02:42;;;;;;;;;24.00;23.75;;;;;;;;5082079;28;12922;-70
2022/05/05 23:05:07;;;;;;;;;20.00;19.00;;;;;;;;5101000;28;12476;-71
2022/05/05 23:07:34;;;;;;;;;25.75;18.75;;;;;;;;5100794;28;12278;-72
2022/05/05 23:09:59;;;;;;;;;19.25;17.75;;;;;;;;5100460;28;11704;-71
2022/05/05 23:12:25;;;;;;;;;21.25;19.25;;;;;;;;5081790;28;13399;-70
2022/05/05 23:14:50;;;;;;;;;19.50;19.25;;;;;;;;5100169;28;12180;-70
2022/05/05 23:17:15;;;;;;;;;17.00;14.50;;;;;;;;5100005;28;10340;-70
2022/05/05 23:19:41;;;;;;;;;17.00;15.75;;;;;;;;5100356;28;12677;-71
2022/05/05 23:22:06;;;;;;;;;21.25;19.50;;;;;;;;5099981;28;8917;-70
2022/05/05 23:24:31;;;;;;;;;24.25;19.00;;;;;;;;5100308;28;13518;-70
2022/05/05 23:26:58;;;;;;;;;21.25;15.75;;;;;;;;5100704;28;11395;-70
2022/05/05 23:29:23;;;;;;;;;19.75;18.25;;;;;;;;5100696;28;11441;-70
2022/05/05 23:31:48;;;;;;;;;18.75;16.50;;;;;;;;5100428;28;12322;-70
2022/05/05 23:36:58;;;;;;;;;17.75;17.00;;;;;;;;5100495;28;11426;-71
2022/05/05 23:39:23;;;;;;;;;20.75;20.50;;;;;;;;5100278;28;11548;-69
2022/05/05 23:41:48;;;;;;;;;16.50;14.00;;;;;;;;5100069;28;14575;-70
2022/05/05 23:44:13;;;;;;;;;19.50;15.75;;;;;;;;5099230;28;13460;-70
2022/05/05 23:46:40;;;;;;;;;14.25;12.25;;;;;;;;5099842;28;11551;-70
2022/05/05 23:49:05;;;;;;;;;16.00;14.00;;;;;;;;5099605;28;10743;-70
2022/05/05 23:51:42;;;;;;;;;8.00;8.00;;;;;;;;5099657;28;11499;-70
2022/05/05 23:54:08;;;;;;;;;13.50;11.00;;;;;;;;5081434;28;23171;-70
2022/05/05 23:56:36;;;;;;;;;15.25;12.75;;;;;;;;5099492;28;22224;-71
2022/05/05 23:59:01;;;;;;;;;11.75;11.25;;;;;;;;5100281;28;12110;-71
